DAUG/GHA METAR and TAF weather

Enter ICAO airport designator
Station Type Date Time Source
DAUG METAR 2020/01/20 13:00 UTC NOAA

DAUG 201300Z 10014KT 9000 DRSA NSC 15/02 Q1012


Station Type Date Time Source
DAUG Decoded METAR 2020/01/20 13:00 UTC NOAA

Ghardaia, Algeria (DAUG) 32-23N 003-49E 450M
Jan 20, 2020 - 08:00 AM EST / 2020.01.20 1300 UTC
Wind: from the E (100 degrees) at 16 MPH (14 KT):0
Visibility: 5 mile(s):0
Weather: low drifting sand
Temperature: 59 F (15 C)
Dew Point: 35 F (2 C)
Relative Humidity: 41%
Pressure (altimeter): 29.88 in. Hg (1012 hPa)
ob: DAUG 201300Z 10014KT 9000 DRSA NSC 15/02 Q1012
cycle: 13

Station Type Date Time Source
DAUG TAF 2020/01/20 12:33 UTC NOAA

TAF DAUG 201100Z 2012/2112 08014KT 8000 NSC PROB40
TEMPO 2012/2018 12024KT 2000 DRSA PROB30
TEMPO 2018/2022 4000 HZ
BECMG 2101/2105 VRB02KT
BECMG 2108/2111 22012KT

Example: see airport list